sensor_id;sensor_type;location;lat;lon;timestamp;P1;durP1;ratioP1;P2;durP2;ratioP2
45358;SDS011;31096;49.292;8.710;2023-06-26T00:00:02;7.27;;;4.43;;
45358;SDS011;31096;49.292;8.710;2023-06-26T00:04:55;6.80;;;4.80;;
45358;SDS011;31096;49.292;8.710;2023-06-26T00:09:46;7.15;;;4.60;;
45358;SDS011;31096;49.292;8.710;2023-06-26T00:14:37;6.83;;;5.00;;
45358;SDS011;31096;49.292;8.710;2023-06-26T00:19:27;6.60;;;4.53;;
45358;SDS011;31096;49.292;8.710;2023-06-26T00:24:18;6.27;;;4.33;;
45358;SDS011;31096;49.292;8.710;2023-06-26T00:29:09;6.73;;;4.50;;
45358;SDS011;31096;49.292;8.710;2023-06-26T00:34:02;6.68;;;4.22;;
45358;SDS011;31096;49.292;8.710;2023-06-26T00:38:53;6.93;;;4.60;;
45358;SDS011;31096;49.292;8.710;2023-06-26T00:43:43;6.70;;;4.60;;
45358;SDS011;31096;49.292;8.710;2023-06-26T00:48:34;6.32;;;4.25;;
45358;SDS011;31096;49.292;8.710;2023-06-26T00:53:25;7.17;;;4.80;;
45358;SDS011;31096;49.292;8.710;2023-06-26T00:58:15;7.70;;;4.72;;
45358;SDS011;31096;49.292;8.710;2023-06-26T01:03:06;6.00;;;4.13;;
45358;SDS011;31096;49.292;8.710;2023-06-26T01:07:57;6.53;;;4.30;;
45358;SDS011;31096;49.292;8.710;2023-06-26T01:12:49;7.07;;;4.63;;
45358;SDS011;31096;49.292;8.710;2023-06-26T01:17:40;6.63;;;4.60;;
45358;SDS011;31096;49.292;8.710;2023-06-26T01:27:40;6.70;;;4.10;;
45358;SDS011;31096;49.292;8.710;2023-06-26T01:32:32;6.63;;;4.40;;
45358;SDS011;31096;49.292;8.710;2023-06-26T01:37:23;7.13;;;4.72;;
45358;SDS011;31096;49.292;8.710;2023-06-26T01:42:14;6.77;;;4.73;;
45358;SDS011;31096;49.292;8.710;2023-06-26T01:47:04;7.43;;;4.60;;
45358;SDS011;31096;49.292;8.710;2023-06-26T01:51:58;6.93;;;4.90;;
45358;SDS011;31096;49.292;8.710;2023-06-26T01:57:00;7.95;;;4.75;;
45358;SDS011;31096;49.292;8.710;2023-06-26T02:01:52;8.10;;;5.50;;
45358;SDS011;31096;49.292;8.710;2023-06-26T02:06:42;6.60;;;4.70;;
45358;SDS011;31096;49.292;8.710;2023-06-26T02:11:33;6.60;;;4.03;;
45358;SDS011;31096;49.292;8.710;2023-06-26T02:16:24;7.57;;;4.13;;
45358;SDS011;31096;49.292;8.710;2023-06-26T02:21:15;6.37;;;4.27;;
45358;SDS011;31096;49.292;8.710;2023-06-26T02:26:05;7.32;;;4.82;;
45358;SDS011;31096;49.292;8.710;2023-06-26T02:30:56;6.67;;;4.50;;
45358;SDS011;31096;49.292;8.710;2023-06-26T02:35:47;7.43;;;4.93;;
45358;SDS011;31096;49.292;8.710;2023-06-26T02:40:40;7.10;;;4.97;;
45358;SDS011;31096;49.292;8.710;2023-06-26T02:45:30;8.32;;;4.28;;
45358;SDS011;31096;49.292;8.710;2023-06-26T02:50:21;6.40;;;4.47;;
45358;SDS011;31096;49.292;8.710;2023-06-26T02:55:12;6.33;;;4.23;;
45358;SDS011;31096;49.292;8.710;2023-06-26T03:00:02;7.60;;;4.93;;
45358;SDS011;31096;49.292;8.710;2023-06-26T03:04:56;7.43;;;4.60;;
45358;SDS011;31096;49.292;8.710;2023-06-26T03:09:47;8.93;;;4.57;;
45358;SDS011;31096;49.292;8.710;2023-06-26T03:14:38;8.00;;;4.40;;
45358;SDS011;31096;49.292;8.710;2023-06-26T03:19:29;7.38;;;4.70;;
45358;SDS011;31096;49.292;8.710;2023-06-26T03:24:20;6.72;;;4.60;;
45358;SDS011;31096;49.292;8.710;2023-06-26T03:29:11;8.93;;;4.87;;
45358;SDS011;31096;49.292;8.710;2023-06-26T03:34:01;9.02;;;4.97;;
45358;SDS011;31096;49.292;8.710;2023-06-26T03:38:52;8.90;;;5.10;;
45358;SDS011;31096;49.292;8.710;2023-06-26T03:43:46;6.72;;;4.78;;
45358;SDS011;31096;49.292;8.710;2023-06-26T03:48:37;6.80;;;4.80;;
45358;SDS011;31096;49.292;8.710;2023-06-26T03:53:28;8.32;;;5.00;;
45358;SDS011;31096;49.292;8.710;2023-06-26T03:58:19;6.93;;;4.53;;
45358;SDS011;31096;49.292;8.710;2023-06-26T04:03:10;7.77;;;5.23;;
45358;SDS011;31096;49.292;8.710;2023-06-26T04:08:01;7.00;;;5.18;;
45358;SDS011;31096;49.292;8.710;2023-06-26T04:12:51;6.97;;;4.73;;
45358;SDS011;31096;49.292;8.710;2023-06-26T04:17:43;7.25;;;4.88;;
45358;SDS011;31096;49.292;8.710;2023-06-26T04:22:33;7.47;;;5.13;;
45358;SDS011;31096;49.292;8.710;2023-06-26T04:27:24;8.57;;;4.75;;
45358;SDS011;31096;49.292;8.710;2023-06-26T04:32:15;7.17;;;5.13;;
45358;SDS011;31096;49.292;8.710;2023-06-26T04:37:06;7.40;;;5.20;;
45358;SDS011;31096;49.292;8.710;2023-06-26T04:41:57;7.23;;;4.77;;
45358;SDS011;31096;49.292;8.710;2023-06-26T04:46:48;7.25;;;5.13;;
45358;SDS011;31096;49.292;8.710;2023-06-26T04:51:41;6.60;;;5.25;;
45358;SDS011;31096;49.292;8.710;2023-06-26T04:56:32;7.43;;;5.27;;
45358;SDS011;31096;49.292;8.710;2023-06-26T05:01:23;8.30;;;6.10;;
45358;SDS011;31096;49.292;8.710;2023-06-26T05:06:13;6.85;;;5.22;;
45358;SDS011;31096;49.292;8.710;2023-06-26T05:11:04;7.43;;;5.40;;
45358;SDS011;31096;49.292;8.710;2023-06-26T05:15:55;8.57;;;4.80;;
45358;SDS011;31096;49.292;8.710;2023-06-26T05:20:46;9.18;;;5.68;;
45358;SDS011;31096;49.292;8.710;2023-06-26T05:25:37;8.23;;;5.73;;
45358;SDS011;31096;49.292;8.710;2023-06-26T05:30:28;7.37;;;5.67;;
45358;SDS011;31096;49.292;8.710;2023-06-26T05:35:21;8.57;;;5.40;;
45358;SDS011;31096;49.292;8.710;2023-06-26T05:40:12;6.63;;;4.75;;
45358;SDS011;31096;49.292;8.710;2023-06-26T05:45:03;7.30;;;5.10;;
45358;SDS011;31096;49.292;8.710;2023-06-26T05:49:55;6.95;;;4.97;;
45358;SDS011;31096;49.292;8.710;2023-06-26T05:54:46;7.25;;;5.25;;
45358;SDS011;31096;49.292;8.710;2023-06-26T05:59:37;6.67;;;4.83;;
45358;SDS011;31096;49.292;8.710;2023-06-26T06:04:31;7.28;;;4.85;;
45358;SDS011;31096;49.292;8.710;2023-06-26T06:09:22;7.43;;;5.53;;
45358;SDS011;31096;49.292;8.710;2023-06-26T06:14:12;7.10;;;5.57;;
45358;SDS011;31096;49.292;8.710;2023-06-26T06:19:03;7.83;;;5.47;;
45358;SDS011;31096;49.292;8.710;2023-06-26T06:23:56;7.78;;;5.50;;
45358;SDS011;31096;49.292;8.710;2023-06-26T06:28:47;8.03;;;4.90;;
45358;SDS011;31096;49.292;8.710;2023-06-26T06:33:38;7.93;;;5.85;;
45358;SDS011;31096;49.292;8.710;2023-06-26T06:38:30;8.50;;;5.90;;
45358;SDS011;31096;49.292;8.710;2023-06-26T06:43:21;10.20;;;5.70;;
45358;SDS011;31096;49.292;8.710;2023-06-26T06:48:12;9.13;;;5.90;;
45358;SDS011;31096;49.292;8.710;2023-06-26T06:53:02;7.60;;;5.70;;
45358;SDS011;31096;49.292;8.710;2023-06-26T06:57:53;8.02;;;5.75;;
45358;SDS011;31096;49.292;8.710;2023-06-26T07:02:44;7.57;;;5.47;;
45358;SDS011;31096;49.292;8.710;2023-06-26T07:07:36;10.30;;;5.80;;
45358;SDS011;31096;49.292;8.710;2023-06-26T07:12:27;7.47;;;4.93;;
45358;SDS011;31096;49.292;8.710;2023-06-26T07:17:18;9.07;;;6.60;;
45358;SDS011;31096;49.292;8.710;2023-06-26T07:22:10;7.10;;;5.63;;
45358;SDS011;31096;49.292;8.710;2023-06-26T07:27:01;8.20;;;5.53;;
45358;SDS011;31096;49.292;8.710;2023-06-26T07:31:52;7.93;;;5.90;;
45358;SDS011;31096;49.292;8.710;2023-06-26T07:36:42;9.13;;;5.97;;
45358;SDS011;31096;49.292;8.710;2023-06-26T07:41:33;9.27;;;5.80;;
45358;SDS011;31096;49.292;8.710;2023-06-26T07:46:24;7.82;;;5.55;;
45358;SDS011;31096;49.292;8.710;2023-06-26T07:51:14;8.47;;;5.30;;
45358;SDS011;31096;49.292;8.710;2023-06-26T07:56:05;7.13;;;5.73;;
45358;SDS011;31096;49.292;8.710;2023-06-26T08:00:56;7.07;;;5.70;;
45358;SDS011;31096;49.292;8.710;2023-06-26T08:05:47;8.60;;;5.45;;
45358;SDS011;31096;49.292;8.710;2023-06-26T08:10:38;7.40;;;5.23;;
45358;SDS011;31096;49.292;8.710;2023-06-26T08:15:28;9.30;;;5.10;;
45358;SDS011;31096;49.292;8.710;2023-06-26T08:20:19;7.07;;;5.13;;
45358;SDS011;31096;49.292;8.710;2023-06-26T08:25:10;7.17;;;5.43;;
45358;SDS011;31096;49.292;8.710;2023-06-26T08:30:01;7.75;;;5.10;;
45358;SDS011;31096;49.292;8.710;2023-06-26T08:34:52;6.47;;;4.97;;
45358;SDS011;31096;49.292;8.710;2023-06-26T08:39:43;6.90;;;4.90;;
45358;SDS011;31096;49.292;8.710;2023-06-26T08:44:34;7.20;;;5.57;;
45358;SDS011;31096;49.292;8.710;2023-06-26T08:49:25;6.65;;;5.10;;
45358;SDS011;31096;49.292;8.710;2023-06-26T08:54:40;6.10;;;5.43;;
45358;SDS011;31096;49.292;8.710;2023-06-26T08:59:38;8.07;;;6.27;;
45358;SDS011;31096;49.292;8.710;2023-06-26T09:04:29;7.90;;;6.13;;
45358;SDS011;31096;49.292;8.710;2023-06-26T09:09:20;7.63;;;5.53;;
45358;SDS011;31096;49.292;8.710;2023-06-26T09:14:11;7.93;;;5.53;;
45358;SDS011;31096;49.292;8.710;2023-06-26T09:19:03;7.07;;;6.05;;
45358;SDS011;31096;49.292;8.710;2023-06-26T09:23:55;7.60;;;5.27;;
45358;SDS011;31096;49.292;8.710;2023-06-26T09:28:45;7.38;;;5.93;;
45358;SDS011;31096;49.292;8.710;2023-06-26T09:33:41;7.05;;;5.50;;
45358;SDS011;31096;49.292;8.710;2023-06-26T09:38:33;7.03;;;5.87;;
45358;SDS011;31096;49.292;8.710;2023-06-26T09:43:25;9.32;;;5.85;;
45358;SDS011;31096;49.292;8.710;2023-06-26T09:48:17;7.03;;;6.10;;
45358;SDS011;31096;49.292;8.710;2023-06-26T09:53:08;7.43;;;6.07;;
45358;SDS011;31096;49.292;8.710;2023-06-26T09:58:00;6.97;;;5.90;;
45358;SDS011;31096;49.292;8.710;2023-06-26T10:02:54;10.55;;;6.57;;
45358;SDS011;31096;49.292;8.710;2023-06-26T10:07:45;7.37;;;6.03;;
45358;SDS011;31096;49.292;8.710;2023-06-26T10:12:36;7.78;;;5.50;;
45358;SDS011;31096;49.292;8.710;2023-06-26T10:17:31;9.10;;;5.50;;
45358;SDS011;31096;49.292;8.710;2023-06-26T10:22:27;8.25;;;5.60;;
45358;SDS011;31096;49.292;8.710;2023-06-26T10:27:35;8.32;;;6.18;;
45358;SDS011;31096;49.292;8.710;2023-06-26T10:32:29;7.17;;;6.10;;
45358;SDS011;31096;49.292;8.710;2023-06-26T10:37:20;7.50;;;6.33;;
45358;SDS011;31096;49.292;8.710;2023-06-26T10:42:10;7.95;;;5.95;;
45358;SDS011;31096;49.292;8.710;2023-06-26T10:47:01;7.87;;;6.00;;
45358;SDS011;31096;49.292;8.710;2023-06-26T10:51:52;8.43;;;6.47;;
45358;SDS011;31096;49.292;8.710;2023-06-26T10:56:48;9.05;;;6.80;;
45358;SDS011;31096;49.292;8.710;2023-06-26T11:01:40;9.30;;;5.60;;
45358;SDS011;31096;49.292;8.710;2023-06-26T11:06:35;7.88;;;5.80;;
45358;SDS011;31096;49.292;8.710;2023-06-26T11:16:58;8.23;;;6.17;;
45358;SDS011;31096;49.292;8.710;2023-06-26T11:21:49;8.63;;;6.30;;
45358;SDS011;31096;49.292;8.710;2023-06-26T11:26:44;9.55;;;7.20;;
45358;SDS011;31096;49.292;8.710;2023-06-26T11:31:38;9.97;;;7.10;;
45358;SDS011;31096;49.292;8.710;2023-06-26T11:36:31;8.48;;;6.32;;
45358;SDS011;31096;49.292;8.710;2023-06-26T11:41:26;7.80;;;6.07;;
45358;SDS011;31096;49.292;8.710;2023-06-26T11:46:21;8.77;;;6.57;;
45358;SDS011;31096;49.292;8.710;2023-06-26T11:51:13;7.28;;;5.95;;
45358;SDS011;31096;49.292;8.710;2023-06-26T11:56:14;7.25;;;6.07;;
45358;SDS011;31096;49.292;8.710;2023-06-26T12:01:07;7.80;;;6.30;;
45358;SDS011;31096;49.292;8.710;2023-06-26T12:05:58;8.80;;;6.97;;
45358;SDS011;31096;49.292;8.710;2023-06-26T12:10:51;10.32;;;6.47;;
45358;SDS011;31096;49.292;8.710;2023-06-26T12:15:42;7.50;;;5.90;;
45358;SDS011;31096;49.292;8.710;2023-06-26T12:20:33;8.90;;;6.25;;
45358;SDS011;31096;49.292;8.710;2023-06-26T12:25:32;7.25;;;6.05;;
45358;SDS011;31096;49.292;8.710;2023-06-26T12:30:24;7.83;;;6.00;;
45358;SDS011;31096;49.292;8.710;2023-06-26T12:35:16;6.60;;;5.27;;
45358;SDS011;31096;49.292;8.710;2023-06-26T12:40:18;6.60;;;5.50;;
45358;SDS011;31096;49.292;8.710;2023-06-26T12:45:15;6.35;;;4.72;;
45358;SDS011;31096;49.292;8.710;2023-06-26T12:50:06;6.60;;;4.90;;
45358;SDS011;31096;49.292;8.710;2023-06-26T12:54:57;6.13;;;4.90;;
45358;SDS011;31096;49.292;8.710;2023-06-26T12:59:49;6.60;;;4.73;;
45358;SDS011;31096;49.292;8.710;2023-06-26T13:04:40;6.68;;;5.10;;
45358;SDS011;31096;49.292;8.710;2023-06-26T13:09:34;6.95;;;4.78;;
45358;SDS011;31096;49.292;8.710;2023-06-26T13:14:27;8.73;;;4.80;;
45358;SDS011;31096;49.292;8.710;2023-06-26T13:19:18;9.07;;;4.63;;
45358;SDS011;31096;49.292;8.710;2023-06-26T13:24:10;7.30;;;4.40;;
45358;SDS011;31096;49.292;8.710;2023-06-26T13:29:00;9.10;;;4.77;;
45358;SDS011;31096;49.292;8.710;2023-06-26T13:33:53;6.35;;;5.00;;
45358;SDS011;31096;49.292;8.710;2023-06-26T13:38:43;6.13;;;4.40;;
45358;SDS011;31096;49.292;8.710;2023-06-26T13:43:35;7.50;;;4.67;;
45358;SDS011;31096;49.292;8.710;2023-06-26T13:48:25;8.27;;;5.95;;
45358;SDS011;31096;49.292;8.710;2023-06-26T13:53:17;8.20;;;5.33;;
45358;SDS011;31096;49.292;8.710;2023-06-26T13:58:09;7.18;;;5.47;;
45358;SDS011;31096;49.292;8.710;2023-06-26T14:03:00;7.32;;;5.80;;
45358;SDS011;31096;49.292;8.710;2023-06-26T14:07:54;7.97;;;6.20;;
45358;SDS011;31096;49.292;8.710;2023-06-26T14:12:45;10.63;;;6.63;;
45358;SDS011;31096;49.292;8.710;2023-06-26T14:17:36;9.05;;;6.50;;
45358;SDS011;31096;49.292;8.710;2023-06-26T14:22:29;10.50;;;7.47;;
45358;SDS011;31096;49.292;8.710;2023-06-26T14:27:20;10.02;;;7.13;;
45358;SDS011;31096;49.292;8.710;2023-06-26T14:32:11;8.97;;;7.13;;
45358;SDS011;31096;49.292;8.710;2023-06-26T14:37:02;10.88;;;5.80;;
45358;SDS011;31096;49.292;8.710;2023-06-26T14:41:53;7.77;;;5.50;;
45358;SDS011;31096;49.292;8.710;2023-06-26T14:46:44;9.80;;;5.25;;
45358;SDS011;31096;49.292;8.710;2023-06-26T14:51:34;6.10;;;4.53;;
45358;SDS011;31096;49.292;8.710;2023-06-26T14:56:25;5.70;;;3.90;;
45358;SDS011;31096;49.292;8.710;2023-06-26T15:01:16;6.30;;;3.93;;
45358;SDS011;31096;49.292;8.710;2023-06-26T15:06:07;7.00;;;3.35;;
45358;SDS011;31096;49.292;8.710;2023-06-26T15:10:59;5.00;;;3.10;;
45358;SDS011;31096;49.292;8.710;2023-06-26T15:15:52;7.20;;;3.33;;
45358;SDS011;31096;49.292;8.710;2023-06-26T15:20:43;6.03;;;3.70;;
45358;SDS011;31096;49.292;8.710;2023-06-26T15:25:35;5.35;;;2.95;;
45358;SDS011;31096;49.292;8.710;2023-06-26T15:30:26;4.83;;;3.10;;
45358;SDS011;31096;49.292;8.710;2023-06-26T15:35:17;5.30;;;3.13;;
45358;SDS011;31096;49.292;8.710;2023-06-26T15:40:08;14.80;;;4.23;;
45358;SDS011;31096;49.292;8.710;2023-06-26T15:45:00;7.53;;;3.63;;
45358;SDS011;31096;49.292;8.710;2023-06-26T15:49:51;5.82;;;3.13;;
45358;SDS011;31096;49.292;8.710;2023-06-26T15:54:41;4.97;;;3.20;;
45358;SDS011;31096;49.292;8.710;2023-06-26T15:59:32;4.40;;;2.90;;
45358;SDS011;31096;49.292;8.710;2023-06-26T16:04:23;4.95;;;3.05;;
45358;SDS011;31096;49.292;8.710;2023-06-26T16:09:14;5.23;;;3.10;;
45358;SDS011;31096;49.292;8.710;2023-06-26T16:14:04;4.85;;;3.00;;
45358;SDS011;31096;49.292;8.710;2023-06-26T16:18:57;4.17;;;2.37;;
45358;SDS011;31096;49.292;8.710;2023-06-26T16:23:48;6.57;;;3.10;;
45358;SDS011;31096;49.292;8.710;2023-06-26T16:28:39;5.70;;;3.10;;
45358;SDS011;31096;49.292;8.710;2023-06-26T16:33:30;11.90;;;3.60;;
45358;SDS011;31096;49.292;8.710;2023-06-26T16:38:21;6.53;;;3.40;;
45358;SDS011;31096;49.292;8.710;2023-06-26T16:43:12;5.53;;;3.10;;
45358;SDS011;31096;49.292;8.710;2023-06-26T16:48:03;4.77;;;3.00;;
45358;SDS011;31096;49.292;8.710;2023-06-26T16:52:55;6.60;;;3.15;;
45358;SDS011;31096;49.292;8.710;2023-06-26T16:57:46;6.17;;;2.70;;
45358;SDS011;31096;49.292;8.710;2023-06-26T17:02:37;4.95;;;2.95;;
45358;SDS011;31096;49.292;8.710;2023-06-26T17:07:27;4.93;;;2.90;;
45358;SDS011;31096;49.292;8.710;2023-06-26T17:12:19;4.85;;;2.92;;
45358;SDS011;31096;49.292;8.710;2023-06-26T17:17:13;5.10;;;3.00;;
45358;SDS011;31096;49.292;8.710;2023-06-26T17:22:05;4.83;;;2.97;;
45358;SDS011;31096;49.292;8.710;2023-06-26T17:27:08;4.70;;;3.00;;
45358;SDS011;31096;49.292;8.710;2023-06-26T17:32:04;5.13;;;2.70;;
45358;SDS011;31096;49.292;8.710;2023-06-26T17:36:59;8.43;;;2.97;;
45358;SDS011;31096;49.292;8.710;2023-06-26T17:41:54;5.18;;;2.60;;
45358;SDS011;31096;49.292;8.710;2023-06-26T17:46:45;4.70;;;2.80;;
45358;SDS011;31096;49.292;8.710;2023-06-26T17:51:36;5.78;;;2.85;;
45358;SDS011;31096;49.292;8.710;2023-06-26T17:56:27;4.68;;;2.15;;
45358;SDS011;31096;49.292;8.710;2023-06-26T18:01:18;4.40;;;2.47;;
45358;SDS011;31096;49.292;8.710;2023-06-26T18:06:09;5.07;;;2.47;;
45358;SDS011;31096;49.292;8.710;2023-06-26T18:11:00;6.93;;;2.80;;
45358;SDS011;31096;49.292;8.710;2023-06-26T18:15:50;4.33;;;2.17;;
45358;SDS011;31096;49.292;8.710;2023-06-26T18:20:41;4.67;;;2.50;;
45358;SDS011;31096;49.292;8.710;2023-06-26T18:25:32;4.80;;;2.20;;
45358;SDS011;31096;49.292;8.710;2023-06-26T18:30:22;5.00;;;2.15;;
45358;SDS011;31096;49.292;8.710;2023-06-26T18:35:13;5.63;;;2.67;;
45358;SDS011;31096;49.292;8.710;2023-06-26T18:40:04;4.70;;;2.30;;
45358;SDS011;31096;49.292;8.710;2023-06-26T18:44:56;5.28;;;2.42;;
45358;SDS011;31096;49.292;8.710;2023-06-26T18:49:47;5.20;;;2.60;;
45358;SDS011;31096;49.292;8.710;2023-06-26T18:54:39;5.40;;;2.78;;
45358;SDS011;31096;49.292;8.710;2023-06-26T18:59:30;4.40;;;2.30;;
45358;SDS011;31096;49.292;8.710;2023-06-26T19:04:21;5.38;;;2.55;;
45358;SDS011;31096;49.292;8.710;2023-06-26T19:09:13;4.63;;;2.50;;
45358;SDS011;31096;49.292;8.710;2023-06-26T19:14:05;5.35;;;2.38;;
45358;SDS011;31096;49.292;8.710;2023-06-26T19:18:56;6.77;;;2.83;;
45358;SDS011;31096;49.292;8.710;2023-06-26T19:23:48;4.03;;;2.08;;
45358;SDS011;31096;49.292;8.710;2023-06-26T19:28:39;4.10;;;2.27;;
45358;SDS011;31096;49.292;8.710;2023-06-26T19:33:29;4.72;;;2.58;;
45358;SDS011;31096;49.292;8.710;2023-06-26T19:38:21;6.13;;;2.80;;
45358;SDS011;31096;49.292;8.710;2023-06-26T19:43:11;6.20;;;2.90;;
45358;SDS011;31096;49.292;8.710;2023-06-26T19:48:03;7.67;;;3.03;;
45358;SDS011;31096;49.292;8.710;2023-06-26T19:52:55;4.80;;;2.80;;
45358;SDS011;31096;49.292;8.710;2023-06-26T19:57:46;5.57;;;2.33;;
45358;SDS011;31096;49.292;8.710;2023-06-26T20:02:38;5.60;;;2.53;;
45358;SDS011;31096;49.292;8.710;2023-06-26T20:07:29;4.60;;;2.63;;
45358;SDS011;31096;49.292;8.710;2023-06-26T20:12:20;5.77;;;2.73;;
45358;SDS011;31096;49.292;8.710;2023-06-26T20:17:13;5.38;;;2.75;;
45358;SDS011;31096;49.292;8.710;2023-06-26T20:22:04;4.67;;;2.70;;
45358;SDS011;31096;49.292;8.710;2023-06-26T20:26:54;6.25;;;2.20;;
45358;SDS011;31096;49.292;8.710;2023-06-26T20:31:45;5.17;;;2.60;;
45358;SDS011;31096;49.292;8.710;2023-06-26T20:36:36;11.77;;;2.85;;
45358;SDS011;31096;49.292;8.710;2023-06-26T20:41:26;5.47;;;2.80;;
45358;SDS011;31096;49.292;8.710;2023-06-26T20:46:18;8.82;;;2.50;;
45358;SDS011;31096;49.292;8.710;2023-06-26T20:51:11;4.13;;;2.33;;
45358;SDS011;31096;49.292;8.710;2023-06-26T20:56:02;4.95;;;2.70;;
45358;SDS011;31096;49.292;8.710;2023-06-26T21:00:54;5.75;;;2.95;;
45358;SDS011;31096;49.292;8.710;2023-06-26T21:05:44;6.17;;;2.90;;
45358;SDS011;31096;49.292;8.710;2023-06-26T21:10:35;4.72;;;2.65;;
45358;SDS011;31096;49.292;8.710;2023-06-26T21:15:26;5.67;;;2.60;;
45358;SDS011;31096;49.292;8.710;2023-06-26T21:20:16;4.60;;;2.70;;
45358;SDS011;31096;49.292;8.710;2023-06-26T21:25:07;7.88;;;2.90;;
45358;SDS011;31096;49.292;8.710;2023-06-26T21:29:58;6.13;;;2.37;;
45358;SDS011;31096;49.292;8.710;2023-06-26T21:34:49;5.35;;;2.45;;
45358;SDS011;31096;49.292;8.710;2023-06-26T21:39:40;4.43;;;2.43;;
45358;SDS011;31096;49.292;8.710;2023-06-26T21:44:30;4.35;;;2.58;;
45358;SDS011;31096;49.292;8.710;2023-06-26T21:49:21;4.63;;;2.53;;
45358;SDS011;31096;49.292;8.710;2023-06-26T21:54:12;5.67;;;2.10;;
45358;SDS011;31096;49.292;8.710;2023-06-26T21:59:02;4.63;;;2.63;;
45358;SDS011;31096;49.292;8.710;2023-06-26T22:03:55;7.03;;;3.10;;
45358;SDS011;31096;49.292;8.710;2023-06-26T22:08:46;4.73;;;2.60;;
45358;SDS011;31096;49.292;8.710;2023-06-26T22:13:37;4.57;;;2.70;;
45358;SDS011;31096;49.292;8.710;2023-06-26T22:18:27;4.87;;;3.07;;
45358;SDS011;31096;49.292;8.710;2023-06-26T22:23:18;4.47;;;2.40;;
45358;SDS011;31096;49.292;8.710;2023-06-26T22:28:09;4.53;;;2.60;;
45358;SDS011;31096;49.292;8.710;2023-06-26T22:33:00;4.57;;;2.53;;
45358;SDS011;31096;49.292;8.710;2023-06-26T22:37:50;8.00;;;2.50;;
45358;SDS011;31096;49.292;8.710;2023-06-26T22:42:41;4.67;;;2.40;;
45358;SDS011;31096;49.292;8.710;2023-06-26T22:47:32;6.18;;;2.60;;
45358;SDS011;31096;49.292;8.710;2023-06-26T22:52:23;6.70;;;3.00;;
45358;SDS011;31096;49.292;8.710;2023-06-26T22:57:13;4.47;;;2.10;;
45358;SDS011;31096;49.292;8.710;2023-06-26T23:02:04;4.20;;;2.30;;
45358;SDS011;31096;49.292;8.710;2023-06-26T23:06:55;7.90;;;2.90;;
45358;SDS011;31096;49.292;8.710;2023-06-26T23:11:47;4.90;;;2.40;;
45358;SDS011;31096;49.292;8.710;2023-06-26T23:16:38;6.43;;;2.80;;
45358;SDS011;31096;49.292;8.710;2023-06-26T23:21:29;5.83;;;2.47;;
45358;SDS011;31096;49.292;8.710;2023-06-26T23:26:20;7.00;;;2.60;;
45358;SDS011;31096;49.292;8.710;2023-06-26T23:31:11;6.53;;;2.78;;
45358;SDS011;31096;49.292;8.710;2023-06-26T23:36:05;4.30;;;2.23;;
45358;SDS011;31096;49.292;8.710;2023-06-26T23:40:57;5.45;;;2.60;;
45358;SDS011;31096;49.292;8.710;2023-06-26T23:45:48;5.10;;;2.30;;
45358;SDS011;31096;49.292;8.710;2023-06-26T23:50:39;5.85;;;2.85;;
45358;SDS011;31096;49.292;8.710;2023-06-26T23:55:30;5.13;;;2.40;;
